createdAt,value
2018-10-03T00:01:16.312Z,99.90
2018-10-03T00:03:44.036Z,99.90
2018-10-03T00:06:11.698Z,99.90
2018-10-03T00:08:39.389Z,99.90
2018-10-03T00:11:07.120Z,99.90
2018-10-03T00:13:34.820Z,99.90
2018-10-03T00:16:02.525Z,99.90
2018-10-03T00:18:30.217Z,99.90
2018-10-03T00:20:57.875Z,99.90
2018-10-03T00:23:25.601Z,99.90
2018-10-03T00:25:53.288Z,99.90
2018-10-03T00:28:20.965Z,99.90
2018-10-03T00:30:48.671Z,99.90
2018-10-03T00:33:16.335Z,99.90
2018-10-03T00:35:44.021Z,99.90
2018-10-03T00:38:11.677Z,99.90
2018-10-03T00:40:39.361Z,99.90
2018-10-03T00:43:07.041Z,99.90
2018-10-03T00:45:34.749Z,99.90
2018-10-03T00:48:02.434Z,99.90
2018-10-03T00:50:30.137Z,99.90
2018-10-03T00:52:57.806Z,99.90
2018-10-03T00:55:25.477Z,99.90
2018-10-03T00:57:53.170Z,99.90
2018-10-03T01:00:20.885Z,99.90
2018-10-03T01:02:48.633Z,99.90
2018-10-03T01:05:16.348Z,99.90
2018-10-03T01:07:44.018Z,99.90
2018-10-03T01:10:11.789Z,99.90
2018-10-03T01:12:39.468Z,99.90
2018-10-03T01:15:07.068Z,99.90
2018-10-03T01:17:34.747Z,99.90
2018-10-03T01:20:02.434Z,99.90
2018-10-03T01:22:30.136Z,99.90
2018-10-03T01:24:57.791Z,99.90
2018-10-03T01:27:28.400Z,99.90
2018-10-03T01:29:56.823Z,99.90
2018-10-03T01:32:24.485Z,99.90
2018-10-03T01:34:52.148Z,99.90
2018-10-03T01:37:19.824Z,99.90
2018-10-03T01:39:47.505Z,99.90
2018-10-03T01:42:15.176Z,99.90
2018-10-03T01:44:42.937Z,99.90
2018-10-03T01:47:10.605Z,99.90
2018-10-03T01:49:38.335Z,99.90
2018-10-03T01:52:06.116Z,99.90
2018-10-03T01:54:33.806Z,99.90
2018-10-03T01:57:01.472Z,99.90
2018-10-03T01:59:29.189Z,99.90
2018-10-03T02:01:56.857Z,99.90
2018-10-03T02:04:24.631Z,99.90
2018-10-03T02:06:52.292Z,99.90
2018-10-03T02:09:19.944Z,99.90
2018-10-03T02:11:47.609Z,99.90
2018-10-03T02:14:15.265Z,99.90
2018-10-03T02:16:42.932Z,99.90
2018-10-03T02:19:10.631Z,99.90
2018-10-03T02:21:38.308Z,99.90
2018-10-03T02:24:06.009Z,99.90
2018-10-03T02:26:33.696Z,99.90
2018-10-03T02:29:02.240Z,99.90
2018-10-03T02:31:29.918Z,99.90
2018-10-03T02:33:57.595Z,99.90
2018-10-03T02:36:25.255Z,99.90
2018-10-03T02:38:52.940Z,99.90
2018-10-03T02:41:20.632Z,99.90
2018-10-03T02:43:48.287Z,99.90
2018-10-03T02:46:16.037Z,99.90
2018-10-03T02:48:43.696Z,99.90
2018-10-03T02:51:11.394Z,99.90
2018-10-03T02:53:39.052Z,99.90
2018-10-03T02:56:06.754Z,99.90
2018-10-03T02:58:34.540Z,99.90
2018-10-03T03:01:02.227Z,99.90
2018-10-03T03:03:29.913Z,99.90
2018-10-03T03:05:57.598Z,99.90
2018-10-03T03:08:25.370Z,99.90
2018-10-03T03:10:52.965Z,99.90
2018-10-03T03:13:20.645Z,99.90
2018-10-03T03:15:48.556Z,99.90
2018-10-03T03:18:16.272Z,99.90
2018-10-03T03:20:43.936Z,99.90
2018-10-03T03:23:11.607Z,99.90
2018-10-03T03:25:39.364Z,99.90
2018-10-03T03:28:07.033Z,99.90
2018-10-03T03:30:34.688Z,99.90
2018-10-03T03:33:02.389Z,99.90
2018-10-03T03:35:30.058Z,99.90
2018-10-03T03:37:57.723Z,99.90
2018-10-03T03:40:25.442Z,99.90
2018-10-03T03:42:53.115Z,99.90
2018-10-03T03:45:23.613Z,99.90
2018-10-03T03:47:51.296Z,99.90
2018-10-03T03:50:18.964Z,99.90
2018-10-03T03:52:46.629Z,99.90
2018-10-03T03:55:14.327Z,99.90
2018-10-03T03:57:41.983Z,99.90
2018-10-03T04:00:09.636Z,99.90
2018-10-03T04:02:37.306Z,99.90
2018-10-03T04:05:04.968Z,99.90
2018-10-03T04:07:32.636Z,99.90
2018-10-03T04:10:00.333Z,99.90
2018-10-03T04:12:27.984Z,99.90
2018-10-03T04:14:55.646Z,99.90
2018-10-03T04:17:23.333Z,99.90
2018-10-03T04:19:51.009Z,99.90
2018-10-03T04:22:18.661Z,99.90
2018-10-03T04:24:46.363Z,99.90
2018-10-03T04:27:14.047Z,99.90
2018-10-03T04:29:41.714Z,99.90
2018-10-03T04:32:09.377Z,99.90
2018-10-03T04:34:37.041Z,99.90
2018-10-03T04:37:04.712Z,99.90
2018-10-03T04:39:32.357Z,99.90
2018-10-03T04:42:00.033Z,99.90
2018-10-03T04:44:27.716Z,99.90
2018-10-03T04:46:55.386Z,99.90
2018-10-03T04:49:23.101Z,99.90
2018-10-03T04:51:50.781Z,99.90
2018-10-03T04:54:18.428Z,99.90
2018-10-03T04:56:46.114Z,99.90
2018-10-03T04:59:13.776Z,99.90
2018-10-03T05:01:41.580Z,99.90
2018-10-03T05:04:09.236Z,99.90
2018-10-03T05:06:36.916Z,99.90
2018-10-03T05:09:06.387Z,99.90
2018-10-03T05:11:34.056Z,99.90
2018-10-03T05:14:01.770Z,99.90
2018-10-03T05:16:29.433Z,99.90
2018-10-03T05:18:57.127Z,99.90
2018-10-03T05:21:24.869Z,99.90
2018-10-03T05:23:52.593Z,99.90
2018-10-03T05:26:20.322Z,99.90
2018-10-03T05:28:47.992Z,99.90
2018-10-03T05:31:15.660Z,99.90
2018-10-03T05:33:43.449Z,99.90
2018-10-03T05:36:11.099Z,99.90
2018-10-03T05:38:38.865Z,99.90
2018-10-03T05:41:06.581Z,99.90
2018-10-03T05:43:34.282Z,99.90
2018-10-03T05:46:01.977Z,99.90
2018-10-03T05:48:29.694Z,99.90
2018-10-03T05:50:57.361Z,99.90
2018-10-03T05:53:25.024Z,99.90
2018-10-03T05:55:52.708Z,99.90
2018-10-03T05:58:20.405Z,99.90
2018-10-03T06:00:48.105Z,99.90
2018-10-03T06:03:15.815Z,99.90
2018-10-03T06:05:43.508Z,99.90
2018-10-03T06:08:11.196Z,99.90
2018-10-03T06:10:38.922Z,99.90
2018-10-03T06:13:06.615Z,99.90
2018-10-03T06:15:34.330Z,99.90
2018-10-03T06:18:02.044Z,99.90
2018-10-03T06:20:29.745Z,99.90
2018-10-03T06:22:57.441Z,99.90
2018-10-03T06:25:25.169Z,99.90
2018-10-03T06:27:52.903Z,99.90
2018-10-03T06:30:20.571Z,99.90
2018-10-03T06:32:48.249Z,99.90
2018-10-03T06:35:16.255Z,99.90
2018-10-03T06:37:43.958Z,99.90
2018-10-03T06:40:11.704Z,99.90
2018-10-03T06:42:39.668Z,99.90
2018-10-03T06:45:07.461Z,99.90
2018-10-03T06:47:35.200Z,99.90
2018-10-03T06:50:03.089Z,99.90
2018-10-03T06:52:33.949Z,99.90
2018-10-03T06:55:01.728Z,99.90
2018-10-03T06:57:29.496Z,99.90
2018-10-03T06:59:57.209Z,99.90
2018-10-03T07:02:24.893Z,99.90
2018-10-03T07:04:52.598Z,99.90
2018-10-03T07:07:20.338Z,99.90
2018-10-03T07:09:48.013Z,99.90
2018-10-03T07:12:15.742Z,99.90
2018-10-03T07:14:43.408Z,99.90
2018-10-03T07:17:11.108Z,99.90
2018-10-03T07:19:38.763Z,99.90
2018-10-03T07:22:06.424Z,99.90
2018-10-03T07:24:34.129Z,99.90
2018-10-03T07:27:01.812Z,99.90
2018-10-03T07:29:29.516Z,99.90
2018-10-03T07:31:57.187Z,99.90
2018-10-03T07:34:24.837Z,99.90
2018-10-03T07:36:52.504Z,99.90
2018-10-03T07:39:20.196Z,99.90
2018-10-03T07:41:47.886Z,99.90
2018-10-03T07:44:15.580Z,99.90
2018-10-03T07:46:43.251Z,99.90
2018-10-03T07:49:10.957Z,99.90
2018-10-03T07:51:38.630Z,99.90
2018-10-03T07:54:06.424Z,99.90
2018-10-03T07:56:34.124Z,99.90
2018-10-03T07:59:01.871Z,99.90
2018-10-03T08:01:29.513Z,99.90
2018-10-03T08:03:57.249Z,99.90
2018-10-03T08:06:24.949Z,99.90
2018-10-03T08:08:52.608Z,99.90
2018-10-03T08:11:20.309Z,99.90
2018-10-03T08:13:48.036Z,99.90
2018-10-03T08:16:15.701Z,99.90
2018-10-03T08:18:43.388Z,99.90
2018-10-03T08:21:11.071Z,99.90
2018-10-03T08:23:38.818Z,99.90
2018-10-03T08:26:06.525Z,99.90
2018-10-03T08:28:37.123Z,99.90
2018-10-03T08:31:04.812Z,99.90
2018-10-03T08:33:32.456Z,99.90
2018-10-03T08:36:00.140Z,99.90
2018-10-03T08:38:27.871Z,99.90
2018-10-03T08:40:55.509Z,99.90
2018-10-03T08:43:23.222Z,99.90
2018-10-03T08:45:50.892Z,99.90
2018-10-03T08:48:18.576Z,99.60
2018-10-03T08:50:46.256Z,99.00
2018-10-03T08:53:13.944Z,96.00
2018-10-03T08:55:41.687Z,98.00
2018-10-03T08:58:09.388Z,97.90
2018-10-03T09:00:37.073Z,97.40
2018-10-03T09:03:04.767Z,96.30
2018-10-03T09:05:32.444Z,94.10
2018-10-03T09:08:06.952Z,93.70
2018-10-03T09:10:34.636Z,93.00
2018-10-03T09:13:02.318Z,90.50
2018-10-03T09:15:30.005Z,86.10
2018-10-03T09:17:57.723Z,81.30
2018-10-03T09:20:25.388Z,80.50
2018-10-03T09:22:53.065Z,76.40
2018-10-03T09:25:20.780Z,75.00
2018-10-03T09:27:48.444Z,74.30
2018-10-03T09:30:16.121Z,68.60
2018-10-03T09:32:43.804Z,68.40
2018-10-03T09:35:11.491Z,65.20
2018-10-03T09:37:39.160Z,66.70
2018-10-03T09:40:06.849Z,68.00
2018-10-03T09:42:34.539Z,65.10
2018-10-03T09:45:02.202Z,57.90
2018-10-03T09:47:29.889Z,56.50
2018-10-03T09:49:57.564Z,55.50
2018-10-03T09:52:25.222Z,52.30
2018-10-03T09:54:52.898Z,49.30
2018-10-03T09:57:20.609Z,46.10
2018-10-03T09:59:48.335Z,47.50
2018-10-03T10:02:16.076Z,54.20
2018-10-03T10:04:43.744Z,58.70
2018-10-03T10:07:11.458Z,62.50
2018-10-03T10:09:39.110Z,55.10
2018-10-03T10:12:06.805Z,54.50
2018-10-03T10:14:34.460Z,60.00
2018-10-03T10:17:02.157Z,63.40
2018-10-03T10:19:29.818Z,63.30
2018-10-03T10:21:57.514Z,66.40
2018-10-03T10:24:25.228Z,63.60
2018-10-03T10:26:52.906Z,57.40
2018-10-03T10:29:20.630Z,47.20
2018-10-03T10:31:48.368Z,40.00
2018-10-03T10:34:15.975Z,36.60
2018-10-03T10:36:43.660Z,38.30
2018-10-03T10:39:11.836Z,39.60
2018-10-03T10:41:39.637Z,37.50
2018-10-03T10:44:07.231Z,38.10
2018-10-03T10:46:35.163Z,41.80
2018-10-03T10:49:02.840Z,45.00
2018-10-03T10:51:30.501Z,44.60
2018-10-03T10:53:58.207Z,48.50
2018-10-03T10:56:25.859Z,49.10
2018-10-03T10:58:53.593Z,46.20
2018-10-03T11:01:21.271Z,41.40
2018-10-03T11:03:48.934Z,35.10
2018-10-03T11:06:16.664Z,32.60
2018-10-03T11:08:44.366Z,35.00
2018-10-03T11:11:12.076Z,32.40
2018-10-03T11:13:39.782Z,34.40
2018-10-03T11:16:07.505Z,34.70
2018-10-03T11:18:35.183Z,35.40
2018-10-03T11:21:02.858Z,36.20
2018-10-03T11:23:30.734Z,37.50
2018-10-03T11:25:59.068Z,36.10
2018-10-03T11:28:26.745Z,38.40
2018-10-03T11:30:54.424Z,39.90
2018-10-03T11:33:22.183Z,41.80
2018-10-03T11:35:49.872Z,41.10
2018-10-03T11:38:17.604Z,38.00
2018-10-03T11:40:45.280Z,33.90
2018-10-03T11:43:13.001Z,32.00
2018-10-03T11:45:40.695Z,28.70
2018-10-03T11:48:08.369Z,27.80
2018-10-03T11:50:36.106Z,27.50
2018-10-03T11:53:03.753Z,27.90
2018-10-03T11:55:31.444Z,29.70
2018-10-03T11:57:59.159Z,30.00
2018-10-03T12:00:26.840Z,31.90
2018-10-03T12:02:54.576Z,32.80
2018-10-03T12:05:22.253Z,31.70
2018-10-03T12:07:49.949Z,30.80
2018-10-03T12:10:17.629Z,31.10
2018-10-03T12:12:45.308Z,31.90
2018-10-03T12:15:13.005Z,32.40
2018-10-03T12:17:40.680Z,33.90
2018-10-03T12:20:08.401Z,36.00
2018-10-03T12:22:36.065Z,36.90
2018-10-03T12:25:04.056Z,36.80
2018-10-03T12:27:31.730Z,39.20
2018-10-03T12:29:59.371Z,40.00
2018-10-03T12:32:27.060Z,36.90
2018-10-03T12:34:54.744Z,36.60
2018-10-03T12:37:22.477Z,34.80
2018-10-03T12:39:50.136Z,32.40
2018-10-03T12:42:17.850Z,29.80
2018-10-03T12:44:45.520Z,28.90
2018-10-03T12:47:13.296Z,28.20
2018-10-03T12:49:40.976Z,27.40
2018-10-03T12:52:08.632Z,26.90
2018-10-03T12:54:36.367Z,27.80
2018-10-03T12:57:04.032Z,28.10
2018-10-03T12:59:31.756Z,26.80
2018-10-03T13:01:59.416Z,27.10
2018-10-03T13:04:27.075Z,27.90
2018-10-03T13:06:54.742Z,28.70
2018-10-03T13:09:22.399Z,27.30
2018-10-03T13:11:50.076Z,27.60
2018-10-03T13:14:17.745Z,30.20
2018-10-03T13:16:45.438Z,32.00
2018-10-03T13:19:13.105Z,33.60
2018-10-03T13:21:40.763Z,35.40
2018-10-03T13:24:08.820Z,36.80
2018-10-03T13:26:36.556Z,35.80
2018-10-03T13:29:04.317Z,32.70
2018-10-03T13:31:32.104Z,30.10
2018-10-03T13:33:59.852Z,29.30
2018-10-03T13:36:27.554Z,29.10
2018-10-03T13:38:55.225Z,28.40
2018-10-03T13:41:22.925Z,28.20
2018-10-03T13:43:50.653Z,28.10
2018-10-03T13:46:18.299Z,28.00
2018-10-03T13:48:46.276Z,27.70
2018-10-03T13:51:13.964Z,28.00
2018-10-03T13:53:41.661Z,29.20
2018-10-03T13:56:09.352Z,28.90
2018-10-03T13:58:37.032Z,28.20
2018-10-03T14:01:04.773Z,27.50
2018-10-03T14:03:32.548Z,28.30
2018-10-03T14:06:00.269Z,28.50
2018-10-03T14:08:27.997Z,28.80
2018-10-03T14:10:55.708Z,28.30
2018-10-03T14:13:23.407Z,27.80
2018-10-03T14:15:51.091Z,28.90
2018-10-03T14:18:18.844Z,31.00
2018-10-03T14:20:46.479Z,32.10
2018-10-03T14:23:14.436Z,31.50
2018-10-03T14:25:42.117Z,30.80
2018-10-03T14:28:09.777Z,31.50
2018-10-03T14:30:37.643Z,31.10
2018-10-03T14:33:05.332Z,31.90
2018-10-03T14:35:33.004Z,32.80
2018-10-03T14:38:00.672Z,33.30
2018-10-03T14:40:28.368Z,34.80
2018-10-03T14:42:56.088Z,35.60
2018-10-03T14:45:23.773Z,37.70
2018-10-03T14:47:51.494Z,38.30
2018-10-03T14:50:19.179Z,37.70
2018-10-03T14:52:46.848Z,37.70
2018-10-03T14:55:14.572Z,37.40
2018-10-03T14:57:42.232Z,37.40
2018-10-03T15:00:09.972Z,37.40
2018-10-03T15:02:37.676Z,38.60
2018-10-03T15:05:05.513Z,37.70
2018-10-03T15:07:33.196Z,38.60
2018-10-03T15:10:00.882Z,39.10
2018-10-03T15:12:28.594Z,38.40
2018-10-03T15:14:56.255Z,39.20
2018-10-03T15:17:23.958Z,39.20
2018-10-03T15:19:51.631Z,38.70
2018-10-03T15:22:19.281Z,38.70
2018-10-03T15:24:46.983Z,38.70
2018-10-03T15:27:14.652Z,38.70
2018-10-03T15:29:42.383Z,39.50
2018-10-03T15:32:10.037Z,39.90
2018-10-03T15:34:37.699Z,40.90
2018-10-03T15:37:05.492Z,42.70
2018-10-03T15:39:33.185Z,41.00
2018-10-03T15:42:00.945Z,41.20
2018-10-03T15:44:28.833Z,39.90
2018-10-03T15:46:56.508Z,39.80
2018-10-03T15:49:24.249Z,40.10
2018-10-03T15:51:51.944Z,41.40
2018-10-03T15:54:19.645Z,41.00
2018-10-03T15:56:47.295Z,42.20
2018-10-03T15:59:14.954Z,43.40
2018-10-03T16:01:42.648Z,42.60
2018-10-03T16:04:10.835Z,43.20
2018-10-03T16:06:38.537Z,43.70
2018-10-03T16:09:06.452Z,45.40
2018-10-03T16:11:34.134Z,46.00
2018-10-03T16:14:01.837Z,47.60
2018-10-03T16:16:29.517Z,48.60
2018-10-03T16:18:57.199Z,47.60
2018-10-03T16:21:24.875Z,46.80
2018-10-03T16:23:52.549Z,45.40
2018-10-03T16:26:20.295Z,46.60
2018-10-03T16:28:47.977Z,48.70
2018-10-03T16:31:15.770Z,48.20
2018-10-03T16:33:43.437Z,47.60
2018-10-03T16:36:11.106Z,48.80
2018-10-03T16:38:38.856Z,48.30
2018-10-03T16:41:06.496Z,48.90
2018-10-03T16:43:34.247Z,49.20
2018-10-03T16:46:01.908Z,48.70
2018-10-03T16:48:29.612Z,50.90
2018-10-03T16:50:57.305Z,50.30
2018-10-03T16:53:24.969Z,51.20
2018-10-03T16:55:52.660Z,53.50
2018-10-03T16:58:20.323Z,53.30
2018-10-03T17:00:48.125Z,54.40
2018-10-03T17:03:15.781Z,55.60
2018-10-03T17:05:43.508Z,58.20
2018-10-03T17:08:11.179Z,57.30
2018-10-03T17:10:38.865Z,59.30
2018-10-03T17:13:06.589Z,59.00
2018-10-03T17:15:34.260Z,60.60
2018-10-03T17:18:01.942Z,58.50
2018-10-03T17:20:29.617Z,60.00
2018-10-03T17:22:57.300Z,60.50
2018-10-03T17:25:24.961Z,62.00
2018-10-03T17:27:52.621Z,61.60
2018-10-03T17:30:20.327Z,60.60
2018-10-03T17:32:48.035Z,62.80
2018-10-03T17:35:15.739Z,63.30
2018-10-03T17:37:43.412Z,64.20
2018-10-03T17:40:11.057Z,64.90
2018-10-03T17:42:38.750Z,63.90
2018-10-03T17:45:06.453Z,66.80
2018-10-03T17:47:34.180Z,66.00
2018-10-03T17:50:03.014Z,67.00
2018-10-03T17:52:30.720Z,69.50
2018-10-03T17:54:58.391Z,69.00
2018-10-03T17:57:26.077Z,67.80
2018-10-03T17:59:53.752Z,68.80
2018-10-03T18:02:21.416Z,70.30
2018-10-03T18:04:49.121Z,70.80
2018-10-03T18:07:16.817Z,71.90
2018-10-03T18:09:44.480Z,72.60
2018-10-03T18:12:12.203Z,72.50
2018-10-03T18:14:39.882Z,74.20
2018-10-03T18:17:08.274Z,74.40
2018-10-03T18:19:36.062Z,75.30
2018-10-03T18:22:03.838Z,76.60
2018-10-03T18:24:31.662Z,78.00
2018-10-03T18:26:59.334Z,80.50
2018-10-03T18:29:27.000Z,82.30
2018-10-03T18:31:54.697Z,84.90
2018-10-03T18:34:22.364Z,85.60
2018-10-03T18:36:50.057Z,88.10
2018-10-03T18:39:17.727Z,89.60
2018-10-03T18:41:45.413Z,90.20
2018-10-03T18:44:13.106Z,90.50
2018-10-03T18:46:40.804Z,91.50
2018-10-03T18:49:08.519Z,92.50
2018-10-03T18:51:36.263Z,93.60
2018-10-03T18:54:04.394Z,93.80
2018-10-03T18:56:32.065Z,94.40
2018-10-03T18:58:59.791Z,94.70
2018-10-03T19:01:27.575Z,94.90
2018-10-03T19:03:55.244Z,95.80
2018-10-03T19:06:22.961Z,96.50
2018-10-03T19:08:50.762Z,98.00
2018-10-03T19:11:18.437Z,99.20
2018-10-03T19:13:46.148Z,99.50
2018-10-03T19:16:13.828Z,99.20
2018-10-03T19:18:41.520Z,99.30
2018-10-03T19:21:09.185Z,99.90
2018-10-03T19:23:36.860Z,99.60
2018-10-03T19:26:04.633Z,99.80
2018-10-03T19:28:32.298Z,99.90
2018-10-03T19:31:00.021Z,99.30
2018-10-03T19:33:27.771Z,99.90
2018-10-03T19:35:55.461Z,99.70
2018-10-03T19:38:23.156Z,99.90
2018-10-03T19:40:50.846Z,99.90
2018-10-03T19:43:18.572Z,99.70
2018-10-03T19:45:46.273Z,99.90
2018-10-03T19:48:14.093Z,99.90
2018-10-03T19:50:41.687Z,99.90
2018-10-03T19:53:09.371Z,99.90
2018-10-03T19:55:37.088Z,99.90
2018-10-03T19:58:04.792Z,99.90
2018-10-03T20:00:32.462Z,99.90
2018-10-03T20:03:00.162Z,99.90
2018-10-03T20:05:27.856Z,99.90
2018-10-03T20:07:55.574Z,99.90
2018-10-03T20:10:23.262Z,99.90
2018-10-03T20:12:50.957Z,99.90
2018-10-03T20:15:18.664Z,99.90
2018-10-03T20:17:46.349Z,99.90
2018-10-03T20:20:14.054Z,99.90
2018-10-03T20:22:41.724Z,99.90
2018-10-03T20:25:09.405Z,99.90
2018-10-03T20:27:37.087Z,99.90
2018-10-03T20:30:05.018Z,99.90
2018-10-03T20:32:32.772Z,99.90
2018-10-03T20:35:00.458Z,99.90
2018-10-03T20:37:28.140Z,99.90
2018-10-03T20:39:55.844Z,99.90
2018-10-03T20:42:23.537Z,99.90
2018-10-03T20:44:51.248Z,99.90
2018-10-03T20:47:18.932Z,99.90
2018-10-03T20:49:46.608Z,99.90
2018-10-03T20:52:14.329Z,99.90
2018-10-03T20:54:41.994Z,99.90
2018-10-03T20:57:09.688Z,99.90
2018-10-03T20:59:37.368Z,99.90
2018-10-03T21:02:05.049Z,99.90
2018-10-03T21:04:32.741Z,99.90
2018-10-03T21:07:00.417Z,99.90
2018-10-03T21:09:28.122Z,99.90
2018-10-03T21:11:55.805Z,99.90
2018-10-03T21:14:23.467Z,99.90
2018-10-03T21:16:51.153Z,99.90
2018-10-03T21:19:18.812Z,99.90
2018-10-03T21:21:46.519Z,99.90
2018-10-03T21:24:14.169Z,99.90
2018-10-03T21:26:41.826Z,99.90
2018-10-03T21:29:09.584Z,99.90
2018-10-03T21:31:37.262Z,99.90
2018-10-03T21:34:04.976Z,99.90
2018-10-03T21:36:32.641Z,99.90
2018-10-03T21:39:00.305Z,99.90
2018-10-03T21:41:28.008Z,99.90
2018-10-03T21:43:55.685Z,99.90
2018-10-03T21:46:23.405Z,99.90
2018-10-03T21:48:51.150Z,99.90
2018-10-03T21:51:18.815Z,99.90
2018-10-03T21:53:46.497Z,99.90
2018-10-03T21:56:14.164Z,99.90
2018-10-03T21:58:41.861Z,99.90
2018-10-03T22:01:09.522Z,99.90
2018-10-03T22:03:37.192Z,99.90
2018-10-03T22:06:05.533Z,99.90
2018-10-03T22:08:33.357Z,99.90
2018-10-03T22:11:01.084Z,99.90
2018-10-03T22:13:28.805Z,99.90
2018-10-03T22:15:56.497Z,99.90
2018-10-03T22:18:24.208Z,99.90
2018-10-03T22:20:51.885Z,99.90
2018-10-03T22:23:19.603Z,99.90
2018-10-03T22:25:47.264Z,99.90
2018-10-03T22:28:14.924Z,99.90
2018-10-03T22:30:42.598Z,99.90
2018-10-03T22:33:10.274Z,99.90
2018-10-03T22:35:37.969Z,99.90
2018-10-03T22:38:05.713Z,99.90
2018-10-03T22:40:33.392Z,99.90
2018-10-03T22:43:01.106Z,99.90
2018-10-03T22:45:28.916Z,99.90
2018-10-03T22:47:56.624Z,99.90
2018-10-03T22:50:24.288Z,99.90
2018-10-03T22:52:51.978Z,99.90
2018-10-03T22:55:19.670Z,99.90
2018-10-03T22:57:47.348Z,99.90
2018-10-03T23:00:15.097Z,99.90
2018-10-03T23:02:42.755Z,99.90
2018-10-03T23:05:10.472Z,99.90
2018-10-03T23:07:38.165Z,99.90
2018-10-03T23:10:06.307Z,99.90
2018-10-03T23:12:34.001Z,99.90
2018-10-03T23:15:01.705Z,99.90
2018-10-03T23:17:29.388Z,99.90
2018-10-03T23:19:57.064Z,99.90
2018-10-03T23:22:24.760Z,99.90
2018-10-03T23:24:52.415Z,99.90
2018-10-03T23:27:20.077Z,99.90
2018-10-03T23:29:47.768Z,99.90
2018-10-03T23:32:15.444Z,99.90
2018-10-03T23:34:43.113Z,99.90
2018-10-03T23:37:10.764Z,99.90
2018-10-03T23:39:38.441Z,99.90
2018-10-03T23:42:06.257Z,99.90
2018-10-03T23:44:33.892Z,99.90
2018-10-03T23:47:01.592Z,99.90
2018-10-03T23:49:29.277Z,99.90
2018-10-03T23:51:56.932Z,99.90
2018-10-03T23:54:24.573Z,99.90
2018-10-03T23:56:52.289Z,99.90
2018-10-03T23:59:19.936Z,99.90
